createdAt,value
2023-03-04T00:00:59.858Z,2.85
2023-03-04T00:03:28.286Z,3.00
2023-03-04T00:05:56.552Z,2.97
2023-03-04T00:08:24.997Z,2.83
2023-03-04T00:10:54.998Z,2.35
2023-03-04T00:13:24.363Z,2.47
2023-03-04T00:15:53.224Z,2.65
2023-03-04T00:18:21.772Z,3.07
2023-03-04T00:20:50.772Z,2.50
2023-03-04T00:23:19.073Z,2.60
2023-03-04T00:25:47.556Z,2.60
2023-03-04T00:28:17.278Z,2.88
2023-03-04T00:30:45.537Z,2.57
2023-03-04T00:33:13.852Z,2.40
2023-03-04T00:35:42.249Z,2.72
2023-03-04T00:38:10.808Z,2.30
2023-03-04T00:40:39.124Z,2.33
2023-03-04T00:43:07.382Z,2.60
2023-03-04T00:45:37.189Z,2.47
2023-03-04T00:48:05.712Z,2.67
2023-03-04T00:50:33.999Z,2.90
2023-03-04T00:53:02.902Z,2.50
2023-03-04T00:55:31.533Z,2.72
2023-03-04T00:57:59.867Z,2.80
2023-03-04T01:00:28.205Z,3.03
2023-03-04T01:02:58.014Z,3.38
2023-03-04T01:05:26.444Z,2.10
2023-03-04T01:07:55.117Z,3.30
2023-03-04T01:10:23.440Z,2.60
2023-03-04T01:12:51.850Z,2.38
2023-03-04T01:15:20.340Z,2.92
2023-03-04T01:17:48.900Z,2.70
2023-03-04T01:20:18.748Z,3.25
2023-03-04T01:22:47.113Z,2.30
2023-03-04T01:25:16.496Z,2.90
2023-03-04T01:27:44.723Z,2.38
2023-03-04T01:30:14.293Z,2.40
2023-03-04T01:32:42.683Z,2.05
2023-03-04T01:35:11.544Z,2.28
2023-03-04T01:37:41.345Z,2.10
2023-03-04T01:40:10.991Z,2.60
2023-03-04T01:42:40.024Z,2.60
2023-03-04T01:45:12.338Z,2.35
2023-03-04T01:47:40.723Z,2.20
2023-03-04T01:50:17.180Z,2.10
2023-03-04T01:52:47.086Z,2.90
2023-03-04T01:55:21.345Z,1.80
2023-03-04T01:57:51.746Z,2.55
2023-03-04T02:00:26.991Z,2.13
2023-03-04T02:02:58.736Z,2.47
2023-03-04T02:05:27.855Z,2.08
2023-03-04T02:07:59.675Z,2.42
2023-03-04T02:10:28.521Z,2.20
2023-03-04T02:12:57.191Z,2.70
2023-03-04T02:15:26.155Z,2.53
2023-03-04T02:17:54.450Z,2.08
2023-03-04T02:20:33.503Z,3.03
2023-03-04T02:23:10.307Z,2.40
2023-03-04T02:25:44.518Z,2.10
2023-03-04T02:28:14.538Z,2.50
2023-03-04T02:30:43.805Z,2.63
2023-03-04T02:33:17.702Z,1.97
2023-03-04T02:35:47.065Z,2.60
2023-03-04T02:38:15.535Z,2.33
2023-03-04T02:40:47.525Z,2.50
2023-03-04T02:43:17.931Z,2.28
2023-03-04T02:45:47.910Z,2.10
2023-03-04T02:48:22.529Z,2.10
2023-03-04T02:50:53.419Z,2.00
2023-03-04T02:53:22.589Z,2.50
2023-03-04T02:55:51.458Z,2.40
2023-03-04T02:58:24.126Z,2.30
2023-03-04T03:00:52.536Z,2.47
2023-03-04T03:03:20.967Z,2.50
2023-03-04T03:05:49.578Z,3.10
2023-03-04T03:08:18.636Z,3.42
2023-03-04T03:10:47.002Z,3.30
2023-03-04T03:13:15.383Z,2.92
2023-03-04T03:15:45.000Z,2.55
2023-03-04T03:18:13.614Z,3.00
2023-03-04T03:20:43.703Z,2.30
2023-03-04T03:23:12.222Z,1.40
2023-03-04T03:25:40.566Z,2.00
2023-03-04T03:28:08.882Z,1.85
2023-03-04T03:30:39.098Z,2.42
2023-03-04T03:33:09.481Z,1.67
2023-03-04T03:35:46.885Z,2.28
2023-03-04T03:38:15.910Z,1.98
2023-03-04T03:40:44.246Z,2.80
2023-03-04T03:43:12.887Z,2.00
2023-03-04T03:45:41.190Z,1.75
2023-03-04T03:48:10.941Z,2.20
2023-03-04T03:50:39.146Z,1.90
2023-03-04T03:53:07.424Z,1.90
2023-03-04T03:55:35.637Z,1.75
2023-03-04T03:58:03.900Z,1.80
2023-03-04T04:00:32.272Z,1.88
2023-03-04T04:03:01.879Z,2.33
2023-03-04T04:05:31.921Z,1.60
2023-03-04T04:08:00.158Z,2.00
2023-03-04T04:10:28.394Z,2.00
2023-03-04T04:12:56.566Z,1.83
2023-03-04T04:15:24.834Z,2.35
2023-03-04T04:17:53.351Z,2.08
2023-03-04T04:20:21.571Z,1.60
2023-03-04T04:22:51.333Z,1.70
2023-03-04T04:25:19.766Z,1.80
2023-03-04T04:27:47.992Z,1.85
2023-03-04T04:30:16.786Z,1.88
2023-03-04T04:32:46.237Z,1.80
2023-03-04T04:35:14.496Z,1.90
2023-03-04T04:37:42.731Z,1.55
2023-03-04T04:40:14.206Z,1.45
2023-03-04T04:42:42.492Z,2.25
2023-03-04T04:45:11.866Z,1.20
2023-03-04T04:47:40.225Z,1.40
2023-03-04T04:50:09.103Z,1.52
2023-03-04T04:52:37.590Z,1.58
2023-03-04T04:55:06.412Z,1.70
2023-03-04T04:57:36.422Z,1.88
2023-03-04T05:00:06.187Z,1.85
2023-03-04T05:02:36.347Z,1.40
2023-03-04T05:05:05.181Z,1.75
2023-03-04T05:07:33.877Z,1.60
2023-03-04T05:10:02.099Z,2.00
2023-03-04T05:12:30.374Z,1.48
2023-03-04T05:15:00.051Z,1.90
2023-03-04T05:17:28.309Z,1.70
2023-03-04T05:19:56.942Z,1.35
2023-03-04T05:22:25.188Z,1.55
2023-03-04T05:24:53.395Z,1.95
2023-03-04T05:27:21.727Z,1.50
2023-03-04T05:29:49.954Z,2.30
2023-03-04T05:32:19.659Z,1.73
2023-03-04T05:34:47.971Z,1.60
2023-03-04T05:37:16.350Z,1.67
2023-03-04T05:39:44.596Z,1.67
2023-03-04T05:42:12.877Z,1.42
2023-03-04T05:44:41.153Z,1.60
2023-03-04T05:47:09.510Z,1.70
2023-03-04T05:49:39.220Z,2.77
2023-03-04T05:52:07.425Z,2.20
2023-03-04T05:54:35.663Z,2.40
2023-03-04T05:57:03.872Z,1.90
2023-03-04T05:59:32.178Z,1.50
2023-03-04T06:02:00.388Z,1.63
2023-03-04T06:04:28.645Z,1.50
2023-03-04T06:06:58.401Z,1.50
2023-03-04T06:09:26.766Z,1.33
2023-03-04T06:11:54.934Z,2.25
2023-03-04T06:14:23.296Z,1.52
2023-03-04T06:16:51.561Z,2.15
2023-03-04T06:19:20.038Z,2.15
2023-03-04T06:21:48.633Z,1.25
2023-03-04T06:24:18.491Z,1.70
2023-03-04T06:26:46.732Z,1.80
2023-03-04T06:29:15.457Z,2.40
2023-03-04T06:31:43.737Z,1.30
2023-03-04T06:34:12.091Z,1.40
2023-03-04T06:36:40.270Z,1.73
2023-03-04T06:39:09.217Z,1.20
2023-03-04T06:41:39.032Z,1.70
2023-03-04T06:44:07.611Z,2.10
2023-03-04T06:46:36.605Z,1.60
2023-03-04T06:49:05.193Z,1.90
2023-03-04T06:51:33.681Z,1.80
2023-03-04T06:54:02.273Z,2.25
2023-03-04T06:56:30.672Z,2.65
2023-03-04T06:59:00.267Z,1.60
2023-03-04T07:01:30.703Z,1.60
2023-03-04T07:03:59.704Z,1.20
2023-03-04T07:06:30.239Z,1.90
2023-03-04T07:08:59.154Z,1.90
2023-03-04T07:11:27.382Z,2.20
2023-03-04T07:13:55.591Z,1.90
2023-03-04T07:16:25.451Z,2.10
2023-03-04T07:18:53.872Z,1.85
2023-03-04T07:21:22.078Z,2.15
2023-03-04T07:23:50.449Z,1.50
2023-03-04T07:26:19.489Z,1.73
2023-03-04T07:28:49.274Z,1.87
2023-03-04T07:31:23.408Z,1.60
2023-03-04T07:33:53.479Z,2.60
2023-03-04T07:36:21.730Z,1.83
2023-03-04T07:38:51.137Z,1.67
2023-03-04T07:41:20.023Z,1.60
2023-03-04T07:43:48.262Z,1.50
2023-03-04T07:46:17.151Z,2.10
2023-03-04T07:48:45.744Z,1.90
2023-03-04T07:51:17.533Z,1.77
2023-03-04T07:53:47.249Z,1.20
2023-03-04T07:56:17.768Z,1.75
2023-03-04T07:58:46.101Z,1.85
2023-03-04T08:01:16.242Z,1.40
2023-03-04T08:03:45.167Z,1.50
2023-03-04T08:06:17.839Z,1.75
2023-03-04T08:08:46.153Z,1.42
2023-03-04T08:11:16.002Z,1.52
2023-03-04T08:13:45.010Z,1.60
2023-03-04T08:16:15.717Z,1.40
2023-03-04T08:18:44.789Z,1.77
2023-03-04T08:21:13.722Z,1.85
2023-03-04T08:23:43.723Z,1.50
2023-03-04T08:26:13.903Z,1.25
2023-03-04T08:28:42.711Z,1.90
2023-03-04T08:31:11.100Z,1.58
2023-03-04T08:33:39.376Z,1.23
2023-03-04T08:36:08.454Z,2.05
2023-03-04T08:38:36.886Z,1.40
2023-03-04T08:41:07.221Z,1.40
2023-03-04T08:43:35.903Z,1.48
2023-03-04T08:46:05.155Z,1.40
2023-03-04T08:48:33.830Z,1.30
2023-03-04T08:51:02.171Z,1.40
2023-03-04T08:53:31.060Z,1.40
2023-03-04T08:55:59.269Z,1.40
2023-03-04T08:58:28.963Z,1.60
2023-03-04T09:00:57.306Z,1.45
2023-03-04T09:03:25.653Z,1.65
2023-03-04T09:05:54.099Z,1.27
2023-03-04T09:08:22.450Z,1.17
2023-03-04T09:10:54.700Z,1.80
2023-03-04T09:13:26.298Z,1.73
2023-03-04T09:15:56.439Z,1.50
2023-03-04T09:18:25.871Z,1.20
2023-03-04T09:20:54.766Z,1.15
2023-03-04T09:23:23.387Z,1.07
2023-03-04T09:25:51.897Z,2.08
2023-03-04T09:28:20.906Z,1.85
2023-03-04T09:30:49.140Z,1.15
2023-03-04T09:33:18.846Z,1.17
2023-03-04T09:35:48.961Z,1.55
2023-03-04T09:38:17.326Z,1.50
2023-03-04T09:40:47.800Z,1.20
2023-03-04T09:43:24.001Z,1.30
2023-03-04T09:45:57.531Z,1.37
2023-03-04T09:48:30.143Z,1.42
2023-03-04T09:51:13.015Z,1.20
2023-03-04T09:53:48.734Z,1.30
2023-03-04T09:56:17.532Z,1.52
2023-03-04T09:58:58.443Z,1.80
2023-03-04T10:01:35.522Z,1.30
2023-03-04T10:04:14.119Z,1.40
2023-03-04T10:06:43.442Z,1.20
2023-03-04T10:09:16.013Z,1.20
2023-03-04T10:11:47.499Z,1.13
2023-03-04T10:14:34.863Z,0.90
2023-03-04T10:17:12.881Z,1.20
2023-03-04T10:19:55.506Z,1.35
2023-03-04T10:22:29.770Z,1.30
2023-03-04T10:25:00.348Z,1.00
2023-03-04T10:27:30.238Z,1.10
2023-03-04T10:30:01.019Z,1.85
2023-03-04T10:32:29.343Z,1.30
2023-03-04T10:34:59.546Z,1.10
2023-03-04T10:37:46.266Z,1.40
2023-03-04T10:40:23.329Z,1.90
2023-03-04T10:42:53.139Z,1.20
2023-03-04T10:45:24.358Z,1.50
2023-03-04T10:47:56.664Z,1.30
2023-03-04T10:50:28.298Z,1.60
2023-03-04T10:52:57.897Z,1.50
2023-03-04T10:55:28.828Z,1.30
2023-03-04T10:57:58.541Z,1.42
2023-03-04T11:00:33.367Z,1.20
2023-03-04T11:03:25.294Z,1.17
2023-03-04T11:06:06.852Z,2.00
2023-03-04T11:08:35.114Z,1.20
2023-03-04T11:11:03.422Z,1.20
2023-03-04T11:13:32.637Z,1.30
2023-03-04T11:16:03.580Z,0.90
2023-03-04T11:18:42.000Z,1.10
2023-03-04T11:21:18.107Z,1.00
2023-03-04T11:23:51.674Z,0.90
2023-03-04T11:26:23.195Z,1.10
2023-03-04T11:28:55.660Z,0.98
2023-03-04T11:31:29.068Z,1.55
2023-03-04T11:34:00.802Z,1.08
2023-03-04T11:36:36.890Z,1.10
2023-03-04T11:39:12.221Z,1.30
2023-03-04T11:41:43.669Z,1.20
2023-03-04T11:44:15.183Z,1.73
2023-03-04T11:47:15.220Z,1.40
2023-03-04T11:50:11.535Z,1.90
2023-03-04T11:53:05.842Z,1.00
2023-03-04T11:55:42.490Z,1.50
2023-03-04T11:58:46.069Z,1.20
2023-03-04T12:01:20.711Z,1.30
2023-03-04T12:04:22.739Z,1.10
2023-03-04T12:07:01.571Z,1.40
2023-03-04T12:09:43.750Z,1.58
2023-03-04T12:12:31.845Z,1.00
2023-03-04T12:15:10.343Z,1.30
2023-03-04T12:17:55.600Z,1.13
2023-03-04T12:20:49.647Z,1.20
2023-03-04T12:23:32.388Z,1.10
2023-03-04T12:26:08.464Z,1.10
2023-03-04T12:28:52.334Z,0.90
2023-03-04T12:31:39.391Z,1.00
2023-03-04T12:34:44.323Z,1.08
2023-03-04T12:37:35.842Z,0.88
2023-03-04T12:40:31.446Z,0.85
2023-03-04T12:43:20.323Z,0.93
2023-03-04T12:45:56.008Z,0.93
2023-03-04T12:48:33.151Z,1.10
2023-03-04T12:51:19.251Z,0.90
2023-03-04T12:53:58.430Z,0.80
2023-03-04T12:56:29.521Z,1.20
2023-03-04T12:58:59.695Z,1.40
2023-03-04T13:01:35.224Z,1.08
2023-03-04T13:04:11.071Z,1.10
2023-03-04T13:06:48.301Z,1.00
2023-03-04T13:09:23.851Z,1.30
2023-03-04T13:11:55.866Z,1.30
2023-03-04T13:14:30.962Z,1.00
2023-03-04T13:17:01.882Z,1.00
2023-03-04T13:19:52.670Z,1.00
2023-03-04T13:22:47.322Z,1.15
2023-03-04T13:25:33.752Z,1.27
2023-03-04T13:28:18.540Z,1.50
2023-03-04T13:31:16.974Z,1.10
2023-03-04T13:34:04.653Z,1.63
2023-03-04T13:37:04.473Z,1.15
2023-03-04T13:39:35.093Z,1.00
2023-03-04T13:42:26.314Z,1.20
2023-03-04T13:45:00.285Z,1.60
2023-03-04T13:47:47.741Z,1.30
2023-03-04T13:50:29.864Z,1.50
2023-03-04T13:53:03.071Z,1.25
2023-03-04T13:55:42.562Z,1.00
2023-03-04T13:58:22.925Z,1.25
2023-03-04T14:00:53.991Z,1.52
2023-03-04T14:03:26.656Z,1.10
2023-03-04T14:06:11.564Z,2.83
2023-03-04T14:08:39.901Z,1.70
2023-03-04T14:11:14.311Z,2.78
2023-03-04T14:13:43.410Z,1.50
2023-03-04T14:16:11.823Z,1.40
2023-03-04T14:18:42.056Z,2.10
2023-03-04T14:21:16.650Z,1.42
2023-03-04T14:23:44.882Z,1.65
2023-03-04T14:26:15.236Z,1.20
2023-03-04T14:28:49.621Z,1.55
2023-03-04T14:31:20.468Z,1.27
2023-03-04T14:33:52.165Z,1.25
2023-03-04T14:36:23.493Z,1.20
2023-03-04T14:38:54.969Z,1.05
2023-03-04T14:41:28.486Z,1.20
2023-03-04T14:44:09.834Z,1.80
2023-03-04T14:46:42.128Z,1.10
2023-03-04T14:49:15.489Z,1.30
2023-03-04T14:51:46.885Z,1.52
2023-03-04T14:54:30.630Z,1.13
2023-03-04T14:56:59.911Z,1.20
2023-03-04T14:59:33.013Z,1.20
2023-03-04T15:02:22.636Z,1.33
2023-03-04T15:04:52.326Z,1.38
2023-03-04T15:07:34.310Z,1.83
2023-03-04T15:10:04.653Z,3.67
2023-03-04T15:12:35.939Z,2.00
2023-03-04T15:15:06.020Z,1.80
2023-03-04T15:17:38.720Z,1.42
2023-03-04T15:20:25.935Z,1.50
2023-03-04T15:23:03.250Z,1.40
2023-03-04T15:25:32.152Z,1.33
2023-03-04T15:28:02.731Z,1.70
2023-03-04T15:30:32.837Z,1.40
2023-03-04T15:33:01.752Z,1.23
2023-03-04T15:35:33.651Z,1.05
2023-03-04T15:38:02.015Z,1.40
2023-03-04T15:40:33.194Z,2.30
2023-03-04T15:43:04.831Z,3.35
2023-03-04T15:45:36.487Z,7.17
2023-03-04T15:48:07.958Z,3.38
2023-03-04T15:50:40.041Z,1.60
2023-03-04T15:53:10.929Z,1.52
2023-03-04T15:55:39.364Z,0.90
2023-03-04T15:58:07.991Z,1.40
2023-03-04T16:00:37.172Z,1.13
2023-03-04T16:03:06.354Z,1.33
2023-03-04T16:05:39.314Z,1.90
2023-03-04T16:08:07.770Z,1.60
2023-03-04T16:10:35.944Z,1.33
2023-03-04T16:13:04.180Z,1.50
2023-03-04T16:15:32.516Z,1.35
2023-03-04T16:18:00.774Z,1.70
2023-03-04T16:20:31.011Z,1.08
2023-03-04T16:23:02.650Z,1.50
2023-03-04T16:25:31.838Z,1.60
2023-03-04T16:28:02.759Z,1.33
2023-03-04T16:30:32.077Z,1.77
2023-03-04T16:33:00.446Z,1.52
2023-03-04T16:35:29.630Z,1.60
2023-03-04T16:38:02.754Z,1.60
2023-03-04T16:40:32.221Z,1.52
2023-03-04T16:43:00.639Z,1.35
2023-03-04T16:45:30.984Z,1.48
2023-03-04T16:47:59.270Z,1.40
2023-03-04T16:50:30.047Z,1.30
2023-03-04T16:53:00.120Z,1.77
2023-03-04T16:55:31.567Z,1.30
2023-03-04T16:57:59.854Z,1.40
2023-03-04T17:00:29.821Z,1.55
2023-03-04T17:02:59.974Z,1.35
2023-03-04T17:05:30.446Z,1.50
2023-03-04T17:08:00.538Z,1.50
2023-03-04T17:10:28.810Z,1.95
2023-03-04T17:12:57.313Z,1.30
2023-03-04T17:15:25.653Z,1.60
2023-03-04T17:17:54.268Z,1.40
2023-03-04T17:20:23.312Z,4.95
2023-03-04T17:22:51.670Z,1.85
2023-03-04T17:25:21.680Z,1.40
2023-03-04T17:27:49.894Z,1.60
2023-03-04T17:30:18.600Z,1.80
2023-03-04T17:32:46.926Z,1.90
2023-03-04T17:35:15.216Z,2.20
2023-03-04T17:37:43.399Z,1.80
2023-03-04T17:40:14.422Z,2.40
2023-03-04T17:42:44.232Z,1.90
2023-03-04T17:45:13.035Z,1.80
2023-03-04T17:47:42.171Z,2.00
2023-03-04T17:50:11.939Z,1.73
2023-03-04T17:52:40.176Z,1.90
2023-03-04T17:55:09.137Z,1.50
2023-03-04T17:57:37.794Z,1.70
2023-03-04T18:00:09.032Z,2.10
2023-03-04T18:02:37.540Z,2.10
2023-03-04T18:05:07.473Z,1.50
2023-03-04T18:07:35.855Z,1.50
2023-03-04T18:10:04.186Z,2.30
2023-03-04T18:12:32.865Z,2.10
2023-03-04T18:15:01.350Z,1.58
2023-03-04T18:17:30.909Z,2.50
2023-03-04T18:19:59.118Z,2.20
2023-03-04T18:22:27.385Z,1.30
2023-03-04T18:24:55.694Z,1.45
2023-03-04T18:27:24.096Z,1.55
2023-03-04T18:29:52.357Z,1.70
2023-03-04T18:32:20.735Z,2.00
2023-03-04T18:34:50.622Z,2.05
2023-03-04T18:37:18.920Z,1.80
2023-03-04T18:39:47.146Z,2.20
2023-03-04T18:42:15.421Z,1.80
2023-03-04T18:44:43.664Z,2.05
2023-03-04T18:47:12.834Z,1.85
2023-03-04T18:49:43.643Z,2.05
2023-03-04T18:52:13.425Z,1.40
2023-03-04T18:54:42.022Z,1.70
2023-03-04T18:57:12.668Z,1.40
2023-03-04T18:59:44.610Z,1.88
2023-03-04T19:02:20.047Z,2.67
2023-03-04T19:04:48.903Z,2.33
2023-03-04T19:07:18.589Z,2.70
2023-03-04T19:09:46.950Z,1.80
2023-03-04T19:12:15.112Z,2.30
2023-03-04T19:14:43.380Z,1.70
2023-03-04T19:17:11.622Z,2.22
2023-03-04T19:19:40.095Z,2.30
2023-03-04T19:22:08.264Z,2.70
2023-03-04T19:24:37.995Z,2.53
2023-03-04T19:27:06.397Z,2.50
2023-03-04T19:29:34.894Z,2.42
2023-03-04T19:32:03.235Z,1.73
2023-03-04T19:34:31.532Z,2.70
2023-03-04T19:36:59.854Z,2.30
2023-03-04T19:39:28.158Z,2.17
2023-03-04T19:41:57.746Z,2.70
2023-03-04T19:44:25.999Z,2.65
2023-03-04T19:46:54.306Z,2.35
2023-03-04T19:49:22.586Z,2.67
2023-03-04T19:51:50.830Z,2.70
2023-03-04T19:54:19.114Z,2.90
2023-03-04T19:56:47.350Z,2.03
2023-03-04T19:59:17.137Z,1.52
2023-03-04T20:01:45.625Z,2.50
2023-03-04T20:04:16.354Z,1.83
2023-03-04T20:06:46.885Z,1.52
2023-03-04T20:09:17.249Z,1.20
2023-03-04T20:11:57.741Z,1.23
2023-03-04T20:14:28.516Z,2.00
2023-03-04T20:17:00.951Z,1.35
2023-03-04T20:19:29.520Z,2.08
2023-03-04T20:21:57.849Z,1.25
2023-03-04T20:24:26.937Z,1.80
2023-03-04T20:26:55.643Z,1.73
2023-03-04T20:29:24.207Z,1.70
2023-03-04T20:31:54.431Z,1.65
2023-03-04T20:34:22.959Z,1.60
2023-03-04T20:36:51.164Z,1.50
2023-03-04T20:39:28.673Z,1.50
2023-03-04T20:41:57.974Z,1.60
2023-03-04T20:44:26.447Z,3.95
2023-03-04T20:46:56.245Z,2.83
2023-03-04T20:49:27.089Z,1.50
2023-03-04T20:51:58.040Z,1.67
2023-03-04T20:54:26.243Z,1.20
2023-03-04T20:56:54.844Z,2.00
2023-03-04T20:59:23.147Z,2.00
2023-03-04T21:01:52.129Z,1.45
2023-03-04T21:04:23.277Z,1.60
2023-03-04T21:06:53.573Z,1.70
2023-03-04T21:09:24.205Z,1.80
2023-03-04T21:11:52.499Z,1.30
2023-03-04T21:14:23.065Z,1.42
2023-03-04T21:16:53.181Z,1.40
2023-03-04T21:19:25.010Z,1.67
2023-03-04T21:21:53.602Z,1.83
2023-03-04T21:24:24.085Z,1.90
2023-03-04T21:26:52.682Z,1.70
2023-03-04T21:29:23.231Z,1.75
2023-03-04T21:31:54.604Z,1.70
2023-03-04T21:34:28.102Z,2.07
2023-03-04T21:36:56.380Z,1.60
2023-03-04T21:39:25.886Z,1.10
2023-03-04T21:41:55.515Z,1.80
2023-03-04T21:44:28.703Z,1.60
2023-03-04T21:47:02.808Z,1.48
2023-03-04T21:49:32.393Z,1.40
2023-03-04T21:52:00.715Z,1.17
2023-03-04T21:54:29.012Z,0.93
2023-03-04T21:56:57.398Z,1.40
2023-03-04T21:59:25.620Z,1.40
2023-03-04T22:01:55.057Z,1.48
2023-03-04T22:04:23.430Z,1.30
2023-03-04T22:06:53.150Z,0.97
2023-03-04T22:09:21.507Z,1.35
2023-03-04T22:11:49.726Z,1.50
2023-03-04T22:14:18.053Z,1.50
2023-03-04T22:16:54.452Z,1.20
2023-03-04T22:19:23.576Z,1.25
2023-03-04T22:21:54.405Z,1.20
2023-03-04T22:24:24.022Z,1.50
2023-03-04T22:26:52.447Z,1.08
2023-03-04T22:29:20.736Z,1.30
2023-03-04T22:31:49.035Z,1.50
2023-03-04T22:34:18.309Z,1.63
2023-03-04T22:36:49.242Z,2.00
2023-03-04T22:39:20.236Z,1.70
2023-03-04T22:41:48.699Z,1.33
2023-03-04T22:44:17.170Z,1.35
2023-03-04T22:46:45.467Z,1.20
2023-03-04T22:49:14.566Z,1.30
2023-03-04T22:51:44.921Z,1.77
2023-03-04T22:54:14.109Z,1.60
2023-03-04T22:56:43.649Z,1.13
2023-03-04T22:59:12.504Z,1.08
2023-03-04T23:01:40.769Z,1.10
2023-03-04T23:04:08.995Z,1.30
2023-03-04T23:06:37.792Z,1.20
2023-03-04T23:09:07.000Z,1.60
2023-03-04T23:11:36.952Z,1.60
2023-03-04T23:14:08.079Z,1.13
2023-03-04T23:16:39.321Z,1.58
2023-03-04T23:19:08.407Z,1.50
2023-03-04T23:21:38.066Z,1.40
2023-03-04T23:24:09.011Z,1.20
2023-03-04T23:26:39.815Z,1.20
2023-03-04T23:29:12.228Z,1.00
2023-03-04T23:31:40.530Z,1.90
2023-03-04T23:34:08.915Z,1.20
2023-03-04T23:36:38.373Z,1.30
2023-03-04T23:39:07.906Z,1.20
2023-03-04T23:41:36.845Z,1.40
2023-03-04T23:44:05.740Z,1.40
2023-03-04T23:46:37.623Z,1.48
2023-03-04T23:49:08.208Z,1.30
2023-03-04T23:51:37.157Z,1.40
2023-03-04T23:54:05.688Z,1.60
2023-03-04T23:56:34.336Z,1.52
2023-03-04T23:59:03.954Z,1.90
